sensor_id;sensor_type;location;lat;lon;timestamp;pressure;altitude;pressure_sealevel;temperature
78917;BMP280;68315;48.608;11.436;2023-12-28T00:02:18;97401.63;;;0.96
78917;BMP280;68315;48.608;11.436;2023-12-28T00:04:43;97407.31;;;0.98
78917;BMP280;68315;48.608;11.436;2023-12-28T00:07:09;97412.88;;;1.03
78917;BMP280;68315;48.608;11.436;2023-12-28T00:09:37;97409.25;;;1.06
78917;BMP280;68315;48.608;11.436;2023-12-28T00:12:02;97411.50;;;1.08
78917;BMP280;68315;48.608;11.436;2023-12-28T00:14:27;97409.41;;;1.03
78917;BMP280;68315;48.608;11.436;2023-12-28T00:16:53;97412.88;;;0.94
78917;BMP280;68315;48.608;11.436;2023-12-28T00:19:18;97412.47;;;0.87
78917;BMP280;68315;48.608;11.436;2023-12-28T00:21:45;97409.63;;;0.81
78917;BMP280;68315;48.608;11.436;2023-12-28T00:24:11;97397.44;;;0.77
78917;BMP280;68315;48.608;11.436;2023-12-28T00:26:36;97403.03;;;0.73
78917;BMP280;68315;48.608;11.436;2023-12-28T00:29:01;97406.31;;;0.68
78917;BMP280;68315;48.608;11.436;2023-12-28T00:31:27;97411.91;;;0.65
78917;BMP280;68315;48.608;11.436;2023-12-28T00:33:52;97400.63;;;0.66
78917;BMP280;68315;48.608;11.436;2023-12-28T00:36:17;97414.75;;;0.70
78917;BMP280;68315;48.608;11.436;2023-12-28T00:38:42;97412.19;;;0.76
78917;BMP280;68315;48.608;11.436;2023-12-28T00:41:08;97415.19;;;0.78
78917;BMP280;68315;48.608;11.436;2023-12-28T00:43:33;97410.97;;;0.77
78917;BMP280;68315;48.608;11.436;2023-12-28T00:45:59;97400.91;;;0.77
78917;BMP280;68315;48.608;11.436;2023-12-28T00:48:24;97408.72;;;0.75
78917;BMP280;68315;48.608;11.436;2023-12-28T00:50:49;97407.69;;;0.73
78917;BMP280;68315;48.608;11.436;2023-12-28T00:53:14;97407.69;;;0.73
78917;BMP280;68315;48.608;11.436;2023-12-28T00:55:40;97421.19;;;0.73
78917;BMP280;68315;48.608;11.436;2023-12-28T00:58:05;97411.88;;;0.74
78917;BMP280;68315;48.608;11.436;2023-12-28T01:00:30;97412.78;;;0.71
78917;BMP280;68315;48.608;11.436;2023-12-28T01:02:56;97418.78;;;0.66
78917;BMP280;68315;48.608;11.436;2023-12-28T01:05:21;97419.25;;;0.64
78917;BMP280;68315;48.608;11.436;2023-12-28T01:07:46;97429.78;;;0.62
78917;BMP280;68315;48.608;11.436;2023-12-28T01:10:12;97430.69;;;0.59
78917;BMP280;68315;48.608;11.436;2023-12-28T01:12:37;97421.81;;;0.58
78917;BMP280;68315;48.608;11.436;2023-12-28T01:15:02;97432.31;;;0.56
78917;BMP280;68315;48.608;11.436;2023-12-28T01:17:28;97433.06;;;0.57
78917;BMP280;68315;48.608;11.436;2023-12-28T01:19:53;97435.19;;;0.53
78917;BMP280;68315;48.608;11.436;2023-12-28T01:22:18;97442.38;;;0.47
78917;BMP280;68315;48.608;11.436;2023-12-28T01:24:46;97449.59;;;0.41
78917;BMP280;68315;48.608;11.436;2023-12-28T01:27:12;97447.34;;;0.39
78917;BMP280;68315;48.608;11.436;2023-12-28T01:29:37;97445.84;;;0.29
78917;BMP280;68315;48.608;11.436;2023-12-28T01:32:03;97454.41;;;0.19
78917;BMP280;68315;48.608;11.436;2023-12-28T01:34:28;97452.91;;;0.18
78917;BMP280;68315;48.608;11.436;2023-12-28T01:36:53;97442.41;;;0.20
78917;BMP280;68315;48.608;11.436;2023-12-28T01:39:19;97427.69;;;0.21
78917;BMP280;68315;48.608;11.436;2023-12-28T01:41:44;97443.13;;;0.20
78917;BMP280;68315;48.608;11.436;2023-12-28T01:44:10;97441.66;;;0.19
78917;BMP280;68315;48.608;11.436;2023-12-28T01:46:35;97434.31;;;0.20
78917;BMP280;68315;48.608;11.436;2023-12-28T01:49:01;97450.81;;;0.22
78917;BMP280;68315;48.608;11.436;2023-12-28T01:51:27;97446.88;;;0.23
78917;BMP280;68315;48.608;11.436;2023-12-28T01:53:52;97449.16;;;0.24
78917;BMP280;68315;48.608;11.436;2023-12-28T01:56:19;97434.00;;;0.27
78917;BMP280;68315;48.608;11.436;2023-12-28T01:58:46;97432.03;;;0.36
78917;BMP280;68315;48.608;11.436;2023-12-28T02:01:13;97440.88;;;0.46
78917;BMP280;68315;48.608;11.436;2023-12-28T02:03:39;97447.47;;;0.63
78917;BMP280;68315;48.608;11.436;2023-12-28T02:06:06;97442.81;;;0.82
78917;BMP280;68315;48.608;11.436;2023-12-28T02:08:32;97439.19;;;0.94
78917;BMP280;68315;48.608;11.436;2023-12-28T02:10:58;97439.91;;;1.03
78917;BMP280;68315;48.608;11.436;2023-12-28T02:13:24;97427.16;;;1.04
78917;BMP280;68315;48.608;11.436;2023-12-28T02:15:58;97419.47;;;1.02
78917;BMP280;68315;48.608;11.436;2023-12-28T02:18:30;97426.69;;;0.96
78917;BMP280;68315;48.608;11.436;2023-12-28T02:21:00;97416.22;;;0.89
78917;BMP280;68315;48.608;11.436;2023-12-28T02:23:27;97422.81;;;0.88
78917;BMP280;68315;48.608;11.436;2023-12-28T02:25:52;97431.81;;;0.85
78917;BMP280;68315;48.608;11.436;2023-12-28T02:28:17;97438.91;;;0.83
78917;BMP280;68315;48.608;11.436;2023-12-28T02:30:43;97430.66;;;0.77
78917;BMP280;68315;48.608;11.436;2023-12-28T02:35:55;97430.50;;;0.63
78917;BMP280;68315;48.608;11.436;2023-12-28T02:38:23;97427.81;;;0.53
78917;BMP280;68315;48.608;11.436;2023-12-28T02:40:49;97431.09;;;0.48
78917;BMP280;68315;48.608;11.436;2023-12-28T02:43:15;97427.81;;;0.44
78917;BMP280;68315;48.608;11.436;2023-12-28T02:45:40;97433.66;;;0.43
78917;BMP280;68315;48.608;11.436;2023-12-28T02:48:06;97430.97;;;0.43
78917;BMP280;68315;48.608;11.436;2023-12-28T02:50:32;97439.06;;;0.43
78917;BMP280;68315;48.608;11.436;2023-12-28T02:52:58;97444.03;;;0.44
78917;BMP280;68315;48.608;11.436;2023-12-28T02:55:24;97432.19;;;0.42
78917;BMP280;68315;48.608;11.436;2023-12-28T02:57:51;97421.94;;;0.37
78917;BMP280;68315;48.608;11.436;2023-12-28T03:00:16;97429.47;;;0.33
78917;BMP280;68315;48.608;11.436;2023-12-28T03:02:42;97426.50;;;0.31
78917;BMP280;68315;48.608;11.436;2023-12-28T03:05:08;97423.81;;;0.31
78917;BMP280;68315;48.608;11.436;2023-12-28T03:07:34;97429.47;;;0.42
78917;BMP280;68315;48.608;11.436;2023-12-28T03:10:00;97430.50;;;0.63
78917;BMP280;68315;48.608;11.436;2023-12-28T03:12:25;97419.38;;;0.79
78917;BMP280;68315;48.608;11.436;2023-12-28T03:14:50;97425.97;;;0.96
78917;BMP280;68315;48.608;11.436;2023-12-28T03:17:16;97434.50;;;1.12
78917;BMP280;68315;48.608;11.436;2023-12-28T03:19:41;97431.31;;;1.23
78917;BMP280;68315;48.608;11.436;2023-12-28T03:22:06;97427.97;;;1.28
78917;BMP280;68315;48.608;11.436;2023-12-28T03:24:31;97426.78;;;1.29
78917;BMP280;68315;48.608;11.436;2023-12-28T03:26:57;97431.59;;;1.25
78917;BMP280;68315;48.608;11.436;2023-12-28T03:29:23;97424.56;;;1.18
78917;BMP280;68315;48.608;11.436;2023-12-28T03:31:49;97426.06;;;1.10
78917;BMP280;68315;48.608;11.436;2023-12-28T03:34:15;97433.00;;;1.02
78917;BMP280;68315;48.608;11.436;2023-12-28T03:36:40;97436.31;;;0.97
78917;BMP280;68315;48.608;11.436;2023-12-28T03:39:05;97437.97;;;0.95
78917;BMP280;68315;48.608;11.436;2023-12-28T03:41:31;97434.69;;;0.91
78917;BMP280;68315;48.608;11.436;2023-12-28T03:43:56;97441.75;;;0.88
78917;BMP280;68315;48.608;11.436;2023-12-28T03:46:21;97439.50;;;0.87
78917;BMP280;68315;48.608;11.436;2023-12-28T03:48:46;97433.63;;;0.88
78917;BMP280;68315;48.608;11.436;2023-12-28T03:51:15;97439.94;;;0.94
78917;BMP280;68315;48.608;11.436;2023-12-28T03:53:44;97440.69;;;0.95
78917;BMP280;68315;48.608;11.436;2023-12-28T03:56:23;97442.50;;;0.89
78917;BMP280;68315;48.608;11.436;2023-12-28T03:58:49;97432.00;;;0.82
78917;BMP280;68315;48.608;11.436;2023-12-28T04:01:14;97428.41;;;0.76
78917;BMP280;68315;48.608;11.436;2023-12-28T04:03:39;97428.25;;;0.70
78917;BMP280;68315;48.608;11.436;2023-12-28T04:06:05;97423.16;;;0.72
78917;BMP280;68315;48.608;11.436;2023-12-28T04:08:30;97426.88;;;0.84
78917;BMP280;68315;48.608;11.436;2023-12-28T04:10:55;97434.66;;;1.00
78917;BMP280;68315;48.608;11.436;2023-12-28T04:13:20;97437.94;;;1.13
78917;BMP280;68315;48.608;11.436;2023-12-28T04:15:46;97429.22;;;1.18
78917;BMP280;68315;48.608;11.436;2023-12-28T04:18:11;97433.41;;;1.19
78917;BMP280;68315;48.608;11.436;2023-12-28T04:20:36;97427.69;;;1.17
78917;BMP280;68315;48.608;11.436;2023-12-28T04:23:01;97445.59;;;1.14
78917;BMP280;68315;48.608;11.436;2023-12-28T04:25:27;97448.75;;;1.13
78917;BMP280;68315;48.608;11.436;2023-12-28T04:27:52;97450.41;;;1.10
78917;BMP280;68315;48.608;11.436;2023-12-28T04:30:17;97444.13;;;1.04
78917;BMP280;68315;48.608;11.436;2023-12-28T04:32:42;97453.88;;;1.02
78917;BMP280;68315;48.608;11.436;2023-12-28T04:35:07;97451.78;;;0.97
78917;BMP280;68315;48.608;11.436;2023-12-28T04:37:33;97452.56;;;0.88
78917;BMP280;68315;48.608;11.436;2023-12-28T04:39:59;97450.19;;;0.81
78917;BMP280;68315;48.608;11.436;2023-12-28T04:42:24;97457.53;;;0.72
78917;BMP280;68315;48.608;11.436;2023-12-28T04:44:50;97458.00;;;0.61
78917;BMP280;68315;48.608;11.436;2023-12-28T04:47:15;97449.88;;;0.52
78917;BMP280;68315;48.608;11.436;2023-12-28T04:49:40;97445.53;;;0.45
78917;BMP280;68315;48.608;11.436;2023-12-28T04:52:05;97456.50;;;0.42
78917;BMP280;68315;48.608;11.436;2023-12-28T04:54:31;97453.47;;;0.40
78917;BMP280;68315;48.608;11.436;2023-12-28T04:56:57;97455.88;;;0.38
78917;BMP280;68315;48.608;11.436;2023-12-28T04:59:23;97451.38;;;0.35
78917;BMP280;68315;48.608;11.436;2023-12-28T05:01:48;97452.59;;;0.34
78917;BMP280;68315;48.608;11.436;2023-12-28T05:04:13;97454.25;;;0.31
78917;BMP280;68315;48.608;11.436;2023-12-28T05:06:38;97447.03;;;0.28
78917;BMP280;68315;48.608;11.436;2023-12-28T05:09:04;97441.34;;;0.26
78917;BMP280;68315;48.608;11.436;2023-12-28T05:11:29;97451.25;;;0.29
78917;BMP280;68315;48.608;11.436;2023-12-28T05:13:55;97453.47;;;0.40
78917;BMP280;68315;48.608;11.436;2023-12-28T05:16:20;97450.34;;;0.50
78917;BMP280;68315;48.608;11.436;2023-12-28T05:18:46;97460.41;;;0.59
78917;BMP280;68315;48.608;11.436;2023-12-28T05:21:12;97457.84;;;0.65
78917;BMP280;68315;48.608;11.436;2023-12-28T05:23:37;97458.91;;;0.67
78917;BMP280;68315;48.608;11.436;2023-12-28T05:26:02;97463.84;;;0.69
78917;BMP280;68315;48.608;11.436;2023-12-28T05:28:27;97459.19;;;0.69
78917;BMP280;68315;48.608;11.436;2023-12-28T05:30:53;97463.84;;;0.69
78917;BMP280;68315;48.608;11.436;2023-12-28T05:33:18;97462.34;;;0.77
78917;BMP280;68315;48.608;11.436;2023-12-28T05:35:43;97463.09;;;0.95
78917;BMP280;68315;48.608;11.436;2023-12-28T05:38:08;97455.81;;;1.10
78917;BMP280;68315;48.608;11.436;2023-12-28T05:40:33;97458.97;;;1.18
78917;BMP280;68315;48.608;11.436;2023-12-28T05:42:59;97452.66;;;1.21
78917;BMP280;68315;48.608;11.436;2023-12-28T05:45:24;97458.81;;;1.22
78917;BMP280;68315;48.608;11.436;2023-12-28T05:47:49;97450.41;;;1.19
78917;BMP280;68315;48.608;11.436;2023-12-28T05:50:15;97445.44;;;1.18
78917;BMP280;68315;48.608;11.436;2023-12-28T05:52:40;97444.41;;;1.15
78917;BMP280;68315;48.608;11.436;2023-12-28T05:55:05;97449.97;;;1.12
78917;BMP280;68315;48.608;11.436;2023-12-28T05:57:31;97454.34;;;1.09
78917;BMP280;68315;48.608;11.436;2023-12-28T05:59:57;97464.00;;;0.92
78917;BMP280;68315;48.608;11.436;2023-12-28T06:02:22;97465.97;;;0.65
78917;BMP280;68315;48.608;11.436;2023-12-28T06:04:47;97467.91;;;0.46
78917;BMP280;68315;48.608;11.436;2023-12-28T06:07:13;97475.28;;;0.36
78917;BMP280;68315;48.608;11.436;2023-12-28T06:09:38;97475.56;;;0.29
78917;BMP280;68315;48.608;11.436;2023-12-28T06:12:04;97468.50;;;0.23
78917;BMP280;68315;48.608;11.436;2023-12-28T06:14:30;97464.03;;;0.20
78917;BMP280;68315;48.608;11.436;2023-12-28T06:16:55;97478.84;;;0.15
78917;BMP280;68315;48.608;11.436;2023-12-28T06:19:21;97471.34;;;0.10
78917;BMP280;68315;48.608;11.436;2023-12-28T06:21:47;97474.19;;;0.07
78917;BMP280;68315;48.608;11.436;2023-12-28T06:24:12;97473.59;;;0.03
78917;BMP280;68315;48.608;11.436;2023-12-28T06:26:44;97470.91;;;0.03
78917;BMP280;68315;48.608;11.436;2023-12-28T06:29:10;97472.09;;;0.02
78917;BMP280;68315;48.608;11.436;2023-12-28T06:31:36;97463.22;;;0.01
78917;BMP280;68315;48.608;11.436;2023-12-28T06:34:02;97461.75;;;0.00
78917;BMP280;68315;48.608;11.436;2023-12-28T06:36:28;97457.22;;;-0.03
78917;BMP280;68315;48.608;11.436;2023-12-28T06:38:53;97460.22;;;-0.01
78917;BMP280;68315;48.608;11.436;2023-12-28T06:41:18;97459.34;;;0.02
78917;BMP280;68315;48.608;11.436;2023-12-28T06:43:43;97455.75;;;0.05
78917;BMP280;68315;48.608;11.436;2023-12-28T06:46:08;97462.94;;;0.08
78917;BMP280;68315;48.608;11.436;2023-12-28T06:48:34;97454.69;;;0.12
78917;BMP280;68315;48.608;11.436;2023-12-28T06:50:59;97447.63;;;0.14
78917;BMP280;68315;48.608;11.436;2023-12-28T06:53:25;97460.72;;;0.16
78917;BMP280;68315;48.608;11.436;2023-12-28T06:55:50;97467.91;;;0.19
78917;BMP280;68315;48.608;11.436;2023-12-28T06:58:15;97456.66;;;0.20
78917;BMP280;68315;48.608;11.436;2023-12-28T07:00:40;97467.44;;;0.20
78917;BMP280;68315;48.608;11.436;2023-12-28T07:03:06;97473.91;;;0.23
78917;BMP280;68315;48.608;11.436;2023-12-28T07:05:31;97471.97;;;0.23
78917;BMP280;68315;48.608;11.436;2023-12-28T07:07:57;97479.19;;;0.26
78917;BMP280;68315;48.608;11.436;2023-12-28T07:10:22;97471.94;;;0.32
78917;BMP280;68315;48.608;11.436;2023-12-28T07:12:47;97480.66;;;0.45
78917;BMP280;68315;48.608;11.436;2023-12-28T07:15:12;97482.19;;;0.65
78917;BMP280;68315;48.608;11.436;2023-12-28T07:17:39;97490.00;;;0.81
78917;BMP280;68315;48.608;11.436;2023-12-28T07:20:05;97489.81;;;1.02
78917;BMP280;68315;48.608;11.436;2023-12-28T07:22:30;97495.06;;;1.24
78917;BMP280;68315;48.608;11.436;2023-12-28T07:24:56;97491.72;;;1.29
78917;BMP280;68315;48.608;11.436;2023-12-28T07:27:21;97483.59;;;1.29
78917;BMP280;68315;48.608;11.436;2023-12-28T07:29:46;97499.84;;;1.29
78917;BMP280;68315;48.608;11.436;2023-12-28T07:32:11;97483.91;;;1.31
78917;BMP280;68315;48.608;11.436;2023-12-28T07:34:37;97492.22;;;1.51
78917;BMP280;68315;48.608;11.436;2023-12-28T07:37:02;97494.47;;;1.86
78917;BMP280;68315;48.608;11.436;2023-12-28T07:39:27;97492.97;;;2.32
78917;BMP280;68315;48.608;11.436;2023-12-28T07:41:52;97507.84;;;2.60
78917;BMP280;68315;48.608;11.436;2023-12-28T07:44:17;97494.03;;;2.73
78917;BMP280;68315;48.608;11.436;2023-12-28T07:46:43;97491.97;;;2.82
78917;BMP280;68315;48.608;11.436;2023-12-28T07:49:08;97482.72;;;2.89
78917;BMP280;68315;48.608;11.436;2023-12-28T07:51:33;97480.19;;;3.00
78917;BMP280;68315;48.608;11.436;2023-12-28T07:53:59;97483.09;;;3.11
78917;BMP280;68315;48.608;11.436;2023-12-28T07:56:24;97476.25;;;3.30
78917;BMP280;68315;48.608;11.436;2023-12-28T07:58:50;97486.34;;;3.44
78917;BMP280;68315;48.608;11.436;2023-12-28T08:01:15;97492.91;;;3.52
78917;BMP280;68315;48.608;11.436;2023-12-28T08:03:40;97491.28;;;3.60
78917;BMP280;68315;48.608;11.436;2023-12-28T08:06:05;97504.03;;;3.69
78917;BMP280;68315;48.608;11.436;2023-12-28T08:08:31;97505.22;;;3.68
78917;BMP280;68315;48.608;11.436;2023-12-28T08:10:56;97503.31;;;3.74
78917;BMP280;68315;48.608;11.436;2023-12-28T08:13:22;97507.81;;;3.92
78917;BMP280;68315;48.608;11.436;2023-12-28T08:15:47;97508.78;;;4.09
78917;BMP280;68315;48.608;11.436;2023-12-28T08:18:12;97516.09;;;4.23
78917;BMP280;68315;48.608;11.436;2023-12-28T08:20:37;97525.13;;;4.34
78917;BMP280;68315;48.608;11.436;2023-12-28T08:23:02;97523.28;;;4.46
78917;BMP280;68315;48.608;11.436;2023-12-28T08:25:28;97522.38;;;4.55
78917;BMP280;68315;48.608;11.436;2023-12-28T08:27:53;97525.09;;;4.55
78917;BMP280;68315;48.608;11.436;2023-12-28T08:30:19;97518.88;;;4.49
78917;BMP280;68315;48.608;11.436;2023-12-28T08:32:44;97522.00;;;4.42
78917;BMP280;68315;48.608;11.436;2023-12-28T08:35:10;97522.69;;;4.37
78917;BMP280;68315;48.608;11.436;2023-12-28T08:37:35;97525.06;;;4.29
78917;BMP280;68315;48.608;11.436;2023-12-28T08:40:00;97529.41;;;4.21
78917;BMP280;68315;48.608;11.436;2023-12-28T08:42:25;97526.16;;;4.17
78917;BMP280;68315;48.608;11.436;2023-12-28T08:44:50;97527.19;;;4.19
78917;BMP280;68315;48.608;11.436;2023-12-28T08:47:17;97529.22;;;4.24
78917;BMP280;68315;48.608;11.436;2023-12-28T08:49:42;97526.13;;;4.31
78917;BMP280;68315;48.608;11.436;2023-12-28T08:52:08;97524.88;;;4.32
78917;BMP280;68315;48.608;11.436;2023-12-28T08:54:33;97533.56;;;4.37
78917;BMP280;68315;48.608;11.436;2023-12-28T08:56:58;97528.88;;;4.37
78917;BMP280;68315;48.608;11.436;2023-12-28T08:59:24;97538.59;;;4.44
78917;BMP280;68315;48.608;11.436;2023-12-28T09:01:53;97522.63;;;4.51
78917;BMP280;68315;48.608;11.436;2023-12-28T09:04:18;97528.19;;;4.62
78917;BMP280;68315;48.608;11.436;2023-12-28T09:06:44;97530.06;;;4.76
78917;BMP280;68315;48.608;11.436;2023-12-28T09:09:09;97535.38;;;4.91
78917;BMP280;68315;48.608;11.436;2023-12-28T09:11:34;97534.06;;;5.07
78917;BMP280;68315;48.608;11.436;2023-12-28T09:14:00;97536.94;;;5.23
78917;BMP280;68315;48.608;11.436;2023-12-28T09:16:25;97535.31;;;5.37
78917;BMP280;68315;48.608;11.436;2023-12-28T09:18:50;97545.09;;;5.49
78917;BMP280;68315;48.608;11.436;2023-12-28T09:21:15;97551.03;;;5.53
78917;BMP280;68315;48.608;11.436;2023-12-28T09:23:41;97554.53;;;5.53
78917;BMP280;68315;48.608;11.436;2023-12-28T09:26:06;97547.38;;;5.61
78917;BMP280;68315;48.608;11.436;2023-12-28T09:28:32;97552.66;;;5.70
78917;BMP280;68315;48.608;11.436;2023-12-28T09:30:58;97546.53;;;5.81
78917;BMP280;68315;48.608;11.436;2023-12-28T09:33:23;97541.59;;;5.85
78917;BMP280;68315;48.608;11.436;2023-12-28T09:35:49;97549.00;;;5.85
78917;BMP280;68315;48.608;11.436;2023-12-28T09:38:14;97554.94;;;5.78
78917;BMP280;68315;48.608;11.436;2023-12-28T09:40:43;97557.88;;;5.68
78917;BMP280;68315;48.608;11.436;2023-12-28T09:43:22;97556.81;;;5.60
78917;BMP280;68315;48.608;11.436;2023-12-28T09:45:48;97558.22;;;5.50
78917;BMP280;68315;48.608;11.436;2023-12-28T09:48:17;97560.88;;;5.45
78917;BMP280;68315;48.608;11.436;2023-12-28T09:50:45;97554.91;;;5.41
78917;BMP280;68315;48.608;11.436;2023-12-28T09:53:11;97553.41;;;5.40
78917;BMP280;68315;48.608;11.436;2023-12-28T09:55:36;97566.81;;;5.38
78917;BMP280;68315;48.608;11.436;2023-12-28T09:58:03;97543.50;;;5.37
78917;BMP280;68315;48.608;11.436;2023-12-28T10:00:31;97552.66;;;5.39
78917;BMP280;68315;48.608;11.436;2023-12-28T10:02:56;97555.66;;;5.41
78917;BMP280;68315;48.608;11.436;2023-12-28T10:05:21;97555.94;;;5.43
78917;BMP280;68315;48.608;11.436;2023-12-28T10:07:47;97552.72;;;5.45
78917;BMP280;68315;48.608;11.436;2023-12-28T10:10:13;97550.28;;;5.47
78917;BMP280;68315;48.608;11.436;2023-12-28T10:12:38;97544.81;;;5.47
78917;BMP280;68315;48.608;11.436;2023-12-28T10:15:04;97546.28;;;5.48
78917;BMP280;68315;48.608;11.436;2023-12-28T10:17:32;97548.56;;;5.49
78917;BMP280;68315;48.608;11.436;2023-12-28T10:19:58;97542.63;;;5.51
78917;BMP280;68315;48.608;11.436;2023-12-28T10:22:29;97533.97;;;5.52
78917;BMP280;68315;48.608;11.436;2023-12-28T10:24:54;97529.50;;;5.55
78917;BMP280;68315;48.608;11.436;2023-12-28T10:27:19;97511.91;;;5.56
78917;BMP280;68315;48.608;11.436;2023-12-28T10:29:44;97510.47;;;5.60
78917;BMP280;68315;48.608;11.436;2023-12-28T10:32:10;97518.19;;;5.67
78917;BMP280;68315;48.608;11.436;2023-12-28T10:34:35;97513.50;;;5.74
78917;BMP280;68315;48.608;11.436;2023-12-28T10:37:01;97517.03;;;5.80
78917;BMP280;68315;48.608;11.436;2023-12-28T10:39:30;97514.56;;;5.87
78917;BMP280;68315;48.608;11.436;2023-12-28T10:41:58;97504.47;;;5.93
78917;BMP280;68315;48.608;11.436;2023-12-28T10:44:27;97491.06;;;6.01
78917;BMP280;68315;48.608;11.436;2023-12-28T10:46:57;97487.16;;;6.07
78917;BMP280;68315;48.608;11.436;2023-12-28T10:49:26;97484.97;;;6.17
78917;BMP280;68315;48.608;11.436;2023-12-28T10:51:52;97476.31;;;6.24
78917;BMP280;68315;48.608;11.436;2023-12-28T10:54:41;97478.81;;;6.33
78917;BMP280;68315;48.608;11.436;2023-12-28T11:02:20;97467.47;;;6.51
78917;BMP280;68315;48.608;11.436;2023-12-28T11:04:50;97466.22;;;6.52
78917;BMP280;68315;48.608;11.436;2023-12-28T11:07:18;97473.16;;;6.53
78917;BMP280;68315;48.608;11.436;2023-12-28T11:09:44;97464.47;;;6.55
78917;BMP280;68315;48.608;11.436;2023-12-28T11:12:09;97465.72;;;6.54
78917;BMP280;68315;48.608;11.436;2023-12-28T11:14:36;97459.00;;;6.55
78917;BMP280;68315;48.608;11.436;2023-12-28T11:17:03;97458.78;;;6.58
78917;BMP280;68315;48.608;11.436;2023-12-28T11:19:29;97457.56;;;6.59
78917;BMP280;68315;48.608;11.436;2023-12-28T11:21:56;97448.09;;;6.60
78917;BMP280;68315;48.608;11.436;2023-12-28T11:24:23;97443.16;;;6.59
78917;BMP280;68315;48.608;11.436;2023-12-28T11:26:55;97442.41;;;6.58
78917;BMP280;68315;48.608;11.436;2023-12-28T11:29:21;97433.44;;;6.58
78917;BMP280;68315;48.608;11.436;2023-12-28T11:31:53;97438.91;;;6.58
78917;BMP280;68315;48.608;11.436;2023-12-28T11:34:24;97439.66;;;6.58
78917;BMP280;68315;48.608;11.436;2023-12-28T11:36:51;97440.41;;;6.59
78917;BMP280;68315;48.608;11.436;2023-12-28T11:39:24;97436.94;;;6.58
78917;BMP280;68315;48.608;11.436;2023-12-28T11:42:01;97434.19;;;6.58
78917;BMP280;68315;48.608;11.436;2023-12-28T11:44:30;97447.09;;;6.58
78917;BMP280;68315;48.608;11.436;2023-12-28T11:46:56;97449.09;;;6.57
78917;BMP280;68315;48.608;11.436;2023-12-28T11:49:27;97448.84;;;6.55
78917;BMP280;68315;48.608;11.436;2023-12-28T11:51:57;97444.88;;;6.56
78917;BMP280;68315;48.608;11.436;2023-12-28T11:54:24;97455.78;;;6.56
78917;BMP280;68315;48.608;11.436;2023-12-28T11:56:49;97456.78;;;6.59
78917;BMP280;68315;48.608;11.436;2023-12-28T11:59:14;97458.78;;;6.58
78917;BMP280;68315;48.608;11.436;2023-12-28T12:01:40;97458.31;;;6.60
78917;BMP280;68315;48.608;11.436;2023-12-28T12:04:06;97455.81;;;6.62
78917;BMP280;68315;48.608;11.436;2023-12-28T12:06:32;97454.56;;;6.63
78917;BMP280;68315;48.608;11.436;2023-12-28T12:08:57;97456.56;;;6.62
78917;BMP280;68315;48.608;11.436;2023-12-28T12:11:24;97451.09;;;6.62
78917;BMP280;68315;48.608;11.436;2023-12-28T12:13:51;97458.03;;;6.63
78917;BMP280;68315;48.608;11.436;2023-12-28T12:16:16;97443.91;;;6.65
78917;BMP280;68315;48.608;11.436;2023-12-28T12:18:42;97443.91;;;6.65
78917;BMP280;68315;48.608;11.436;2023-12-28T12:21:07;97438.69;;;6.67
78917;BMP280;68315;48.608;11.436;2023-12-28T12:23:32;97445.63;;;6.68
78917;BMP280;68315;48.608;11.436;2023-12-28T12:25:57;97443.66;;;6.68
78917;BMP280;68315;48.608;11.436;2023-12-28T12:28:23;97433.47;;;6.69
78917;BMP280;68315;48.608;11.436;2023-12-28T12:30:54;97430.25;;;6.70
78917;BMP280;68315;48.608;11.436;2023-12-28T12:33:23;97436.72;;;6.73
78917;BMP280;68315;48.608;11.436;2023-12-28T12:35:50;97436.19;;;6.74
78917;BMP280;68315;48.608;11.436;2023-12-28T12:38:16;97440.69;;;6.77
78917;BMP280;68315;48.608;11.436;2023-12-28T12:40:41;97439.66;;;6.80
78917;BMP280;68315;48.608;11.436;2023-12-28T12:43:07;97431.25;;;6.84
78917;BMP280;68315;48.608;11.436;2023-12-28T12:45:34;97434.50;;;6.88
78917;BMP280;68315;48.608;11.436;2023-12-28T12:47:59;97426.53;;;6.90
78917;BMP280;68315;48.608;11.436;2023-12-28T12:50:25;97418.09;;;6.93
78917;BMP280;68315;48.608;11.436;2023-12-28T12:52:50;97416.59;;;6.98
78917;BMP280;68315;48.608;11.436;2023-12-28T12:55:16;97420.81;;;7.04
78917;BMP280;68315;48.608;11.436;2023-12-28T12:57:41;97409.88;;;7.10
78917;BMP280;68315;48.608;11.436;2023-12-28T13:00:08;97409.84;;;7.16
78917;BMP280;68315;48.608;11.436;2023-12-28T13:02:34;97404.41;;;7.21
78917;BMP280;68315;48.608;11.436;2023-12-28T13:05:01;97404.16;;;7.25
78917;BMP280;68315;48.608;11.436;2023-12-28T13:07:27;97402.13;;;7.25
78917;BMP280;68315;48.608;11.436;2023-12-28T13:09:52;97412.84;;;7.23
78917;BMP280;68315;48.608;11.436;2023-12-28T13:12:17;97409.63;;;7.25
78917;BMP280;68315;48.608;11.436;2023-12-28T13:14:42;97408.34;;;7.26
78917;BMP280;68315;48.608;11.436;2023-12-28T13:17:10;97399.13;;;7.29
78917;BMP280;68315;48.608;11.436;2023-12-28T13:19:35;97404.38;;;7.32
78917;BMP280;68315;48.608;11.436;2023-12-28T13:22:00;97408.09;;;7.35
78917;BMP280;68315;48.608;11.436;2023-12-28T13:24:25;97413.03;;;7.36
78917;BMP280;68315;48.608;11.436;2023-12-28T13:26:50;97404.38;;;7.38
78917;BMP280;68315;48.608;11.436;2023-12-28T13:29:16;97405.59;;;7.37
78917;BMP280;68315;48.608;11.436;2023-12-28T13:31:41;97405.88;;;7.39
78917;BMP280;68315;48.608;11.436;2023-12-28T13:34:06;97405.13;;;7.38
78917;BMP280;68315;48.608;11.436;2023-12-28T13:36:31;97394.66;;;7.37
78917;BMP280;68315;48.608;11.436;2023-12-28T13:38:57;97389.19;;;7.37
78917;BMP280;68315;48.608;11.436;2023-12-28T13:41:22;97400.63;;;7.35
78917;BMP280;68315;48.608;11.436;2023-12-28T13:43:47;97400.63;;;7.35
78917;BMP280;68315;48.608;11.436;2023-12-28T13:46:12;97399.88;;;7.35
78917;BMP280;68315;48.608;11.436;2023-12-28T13:48:38;97400.63;;;7.35
78917;BMP280;68315;48.608;11.436;2023-12-28T13:51:05;97401.88;;;7.34
78917;BMP280;68315;48.608;11.436;2023-12-28T13:53:31;97404.59;;;7.34
78917;BMP280;68315;48.608;11.436;2023-12-28T13:55:59;97411.56;;;7.35
78917;BMP280;68315;48.608;11.436;2023-12-28T13:58:24;97408.84;;;7.35
78917;BMP280;68315;48.608;11.436;2023-12-28T14:00:49;97414.31;;;7.35
78917;BMP280;68315;48.608;11.436;2023-12-28T14:03:15;97410.06;;;7.34
78917;BMP280;68315;48.608;11.436;2023-12-28T14:05:40;97416.28;;;7.35
78917;BMP280;68315;48.608;11.436;2023-12-28T14:08:06;97415.53;;;7.34
78917;BMP280;68315;48.608;11.436;2023-12-28T14:10:32;97413.31;;;7.33